createdAt,value
2016-11-06T00:00:37.856Z,0
2016-11-06T00:01:18.510Z,0
2016-11-06T00:01:59.214Z,0
2016-11-06T00:02:39.942Z,0
2016-11-06T00:03:20.610Z,0
2016-11-06T00:04:01.225Z,0
2016-11-06T00:04:41.972Z,0
2016-11-06T00:05:22.655Z,0
2016-11-06T00:06:03.290Z,0
2016-11-06T00:06:43.989Z,0
2016-11-06T00:07:24.684Z,0
2016-11-06T00:08:05.354Z,0
2016-11-06T00:08:46.057Z,0
2016-11-06T00:09:26.725Z,0
2016-11-06T00:10:07.430Z,0
2016-11-06T00:10:48.110Z,0
2016-11-06T00:11:28.805Z,0
2016-11-06T00:12:09.483Z,0
2016-11-06T00:12:50.119Z,0
2016-11-06T00:13:30.801Z,0
2016-11-06T00:14:11.493Z,0
2016-11-06T00:14:52.184Z,0
2016-11-06T00:15:32.848Z,0
2016-11-06T00:16:13.550Z,0
2016-11-06T00:16:54.763Z,0
2016-11-06T00:17:35.448Z,0
2016-11-06T00:18:16.671Z,0
2016-11-06T00:18:56.853Z,0
2016-11-06T00:19:37.560Z,0
2016-11-06T00:20:18.283Z,0
2016-11-06T00:20:58.962Z,0
2016-11-06T00:21:39.584Z,0
2016-11-06T00:22:20.274Z,0
2016-11-06T00:23:00.965Z,0
2016-11-06T00:23:41.657Z,0
2016-11-06T00:24:22.340Z,0
2016-11-06T00:25:03.672Z,0
2016-11-06T00:25:43.781Z,0
2016-11-06T00:26:24.435Z,0
2016-11-06T00:27:05.160Z,0
2016-11-06T00:27:45.876Z,0
2016-11-06T00:28:26.524Z,0
2016-11-06T00:29:07.233Z,0
2016-11-06T00:29:47.912Z,0
2016-11-06T00:30:28.596Z,0
2016-11-06T00:31:09.303Z,0
2016-11-06T00:31:50.013Z,0
2016-11-06T00:32:30.747Z,0
2016-11-06T00:33:11.413Z,0
2016-11-06T00:33:52.109Z,0
2016-11-06T00:34:32.806Z,0
2016-11-06T00:35:13.460Z,0
2016-11-06T00:35:54.135Z,0
2016-11-06T00:36:34.825Z,0
2016-11-06T00:37:15.555Z,0
2016-11-06T00:37:56.233Z,0
2016-11-06T00:38:36.945Z,0
2016-11-06T00:39:17.622Z,0
2016-11-06T00:39:58.291Z,0
2016-11-06T00:40:39.003Z,0
2016-11-06T00:41:19.659Z,0
2016-11-06T00:42:00.348Z,0
2016-11-06T00:42:41.041Z,0
2016-11-06T00:43:21.711Z,0
2016-11-06T00:44:02.369Z,0
2016-11-06T00:44:43.062Z,0
2016-11-06T00:45:23.770Z,0
2016-11-06T00:46:04.466Z,0
2016-11-06T00:46:45.139Z,0
2016-11-06T00:47:25.830Z,0
2016-11-06T00:48:06.456Z,0
2016-11-06T00:48:47.158Z,0
2016-11-06T00:49:27.866Z,0
2016-11-06T00:50:08.541Z,0
2016-11-06T00:50:49.206Z,0
2016-11-06T00:51:29.897Z,0
2016-11-06T00:52:10.608Z,0
2016-11-06T00:52:51.263Z,0
2016-11-06T00:53:31.947Z,0
2016-11-06T00:54:12.606Z,0
2016-11-06T00:54:53.314Z,0
2016-11-06T00:55:33.990Z,0
2016-11-06T00:56:14.683Z,0
2016-11-06T00:56:55.323Z,0
2016-11-06T00:57:36.030Z,0
2016-11-06T00:58:16.720Z,0
2016-11-06T00:58:57.426Z,0
2016-11-06T00:59:38.109Z,0
2016-11-06T01:00:18.785Z,0
2016-11-06T01:01:00.185Z,0
2016-11-06T01:01:40.138Z,0
2016-11-06T01:02:20.886Z,0
2016-11-06T01:03:01.550Z,0
2016-11-06T01:03:42.269Z,0
2016-11-06T01:04:22.929Z,0
2016-11-06T01:05:03.606Z,0
2016-11-06T01:05:44.310Z,0
2016-11-06T01:06:25.004Z,0
2016-11-06T01:07:05.630Z,0
2016-11-06T01:07:46.272Z,0
2016-11-06T01:08:26.960Z,0
2016-11-06T01:09:07.623Z,0
2016-11-06T01:09:48.343Z,0
2016-11-06T01:10:28.946Z,0
2016-11-06T01:11:09.654Z,0
2016-11-06T01:11:50.316Z,0
2016-11-06T01:12:30.982Z,0
2016-11-06T01:13:11.671Z,0
2016-11-06T01:13:52.377Z,0
2016-11-06T01:14:33.049Z,0
2016-11-06T01:15:13.735Z,0
2016-11-06T01:15:54.413Z,0
2016-11-06T01:16:35.108Z,0
2016-11-06T01:17:15.772Z,0
2016-11-06T01:17:56.502Z,0
2016-11-06T01:18:37.158Z,0
2016-11-06T01:19:17.850Z,0
2016-11-06T01:19:58.574Z,0
2016-11-06T01:20:39.269Z,0
2016-11-06T01:21:19.972Z,0
2016-11-06T01:22:00.662Z,0
2016-11-06T01:22:41.323Z,0
2016-11-06T01:23:21.983Z,0
2016-11-06T01:24:02.674Z,0
2016-11-06T01:24:44.195Z,0
2016-11-06T01:25:24.054Z,0
2016-11-06T01:26:04.754Z,0
2016-11-06T01:26:45.444Z,0
2016-11-06T01:27:26.123Z,0
2016-11-06T01:28:06.809Z,0
2016-11-06T01:28:47.491Z,0
2016-11-06T01:29:28.128Z,0
2016-11-06T01:30:08.832Z,0
2016-11-06T01:30:49.541Z,0
2016-11-06T01:31:30.201Z,0
2016-11-06T01:32:10.856Z,0
2016-11-06T01:32:51.546Z,0
2016-11-06T01:33:32.196Z,0
2016-11-06T01:34:12.911Z,0
2016-11-06T01:34:53.588Z,0
2016-11-06T01:35:34.252Z,0
2016-11-06T01:36:14.989Z,0
2016-11-06T01:36:55.691Z,0
2016-11-06T01:37:36.360Z,0
2016-11-06T01:38:17.053Z,0
2016-11-06T01:38:57.765Z,0
2016-11-06T01:39:38.459Z,0
2016-11-06T01:40:19.087Z,0
2016-11-06T01:40:59.794Z,0
2016-11-06T01:41:40.513Z,0
2016-11-06T01:42:21.141Z,0
2016-11-06T01:43:01.840Z,0
2016-11-06T01:43:42.519Z,0
2016-11-06T01:44:23.202Z,0
2016-11-06T01:45:03.856Z,0
2016-11-06T01:45:44.534Z,0
2016-11-06T01:46:25.246Z,0
2016-11-06T01:47:05.919Z,0
2016-11-06T01:47:46.593Z,0
2016-11-06T01:48:27.257Z,0
2016-11-06T01:49:07.905Z,0
2016-11-06T01:49:48.560Z,0
2016-11-06T01:50:29.226Z,0
2016-11-06T01:51:09.879Z,0
2016-11-06T01:51:50.580Z,0
2016-11-06T01:52:31.251Z,0
2016-11-06T01:53:11.953Z,0
2016-11-06T01:53:52.618Z,0
2016-11-06T01:54:33.302Z,0
2016-11-06T01:55:13.982Z,0
2016-11-06T01:55:54.711Z,0
2016-11-06T01:56:36.303Z,0
2016-11-06T01:57:16.991Z,0
2016-11-06T01:57:57.630Z,0
2016-11-06T01:58:38.298Z,0
2016-11-06T01:59:18.966Z,0
2016-11-06T01:59:59.658Z,0
2016-11-06T02:00:40.339Z,0
2016-11-06T02:01:20.998Z,0
2016-11-06T02:02:01.696Z,0
2016-11-06T02:02:42.439Z,0
2016-11-06T02:03:23.162Z,0
2016-11-06T02:04:03.874Z,0
2016-11-06T02:04:44.572Z,0
2016-11-06T02:05:25.265Z,0
2016-11-06T02:06:05.943Z,0
2016-11-06T02:06:46.600Z,0
2016-11-06T02:07:27.282Z,0
2016-11-06T02:08:07.981Z,0
2016-11-06T02:08:48.657Z,0
2016-11-06T02:09:29.342Z,0
2016-11-06T02:10:10.726Z,0
2016-11-06T02:10:50.755Z,0
2016-11-06T02:11:31.476Z,0
2016-11-06T02:12:12.120Z,0
2016-11-06T02:12:52.848Z,0
2016-11-06T02:13:33.606Z,0
2016-11-06T02:14:14.303Z,0
2016-11-06T02:14:55.006Z,0
2016-11-06T02:15:35.634Z,0
2016-11-06T02:16:16.275Z,0
2016-11-06T02:16:56.954Z,0
2016-11-06T02:17:37.653Z,0
2016-11-06T02:18:18.310Z,0
2016-11-06T02:18:58.975Z,0
2016-11-06T02:19:39.645Z,0
2016-11-06T02:20:20.314Z,0
2016-11-06T02:21:01.007Z,0
2016-11-06T02:21:41.709Z,0
2016-11-06T02:22:22.392Z,0
2016-11-06T02:23:03.103Z,0
2016-11-06T02:23:43.806Z,0
2016-11-06T02:24:24.458Z,0
2016-11-06T02:25:05.138Z,0
2016-11-06T02:25:45.795Z,0
2016-11-06T02:26:26.523Z,0
2016-11-06T02:27:07.225Z,0
2016-11-06T02:27:47.923Z,0
2016-11-06T02:28:28.620Z,0
2016-11-06T02:29:09.304Z,0
2016-11-06T02:29:50.022Z,0
2016-11-06T02:30:30.706Z,0
2016-11-06T02:31:12.234Z,0
2016-11-06T02:31:52.050Z,0
2016-11-06T02:32:32.698Z,0
2016-11-06T02:33:13.402Z,0
2016-11-06T02:33:54.123Z,0
2016-11-06T02:34:34.776Z,0
2016-11-06T02:35:15.468Z,0
2016-11-06T02:35:56.151Z,0
2016-11-06T02:36:36.821Z,0
2016-11-06T02:37:17.522Z,0
2016-11-06T02:37:58.188Z,0
2016-11-06T02:38:38.870Z,0
2016-11-06T02:39:19.524Z,0
2016-11-06T02:40:00.203Z,0
2016-11-06T02:40:40.881Z,0
2016-11-06T02:41:21.570Z,0
2016-11-06T02:42:02.247Z,0
2016-11-06T02:42:42.907Z,0
2016-11-06T02:43:23.629Z,0
2016-11-06T02:44:04.330Z,0
2016-11-06T02:44:44.981Z,0
2016-11-06T02:45:25.672Z,0
2016-11-06T02:46:06.388Z,0
2016-11-06T02:46:47.059Z,0
2016-11-06T02:47:27.751Z,0
2016-11-06T02:48:08.436Z,0
2016-11-06T02:48:49.095Z,0
2016-11-06T02:49:29.758Z,0
2016-11-06T02:50:10.429Z,0
2016-11-06T02:50:51.100Z,0
2016-11-06T02:51:31.813Z,0
2016-11-06T02:52:12.532Z,0
2016-11-06T02:52:53.161Z,0
2016-11-06T02:53:33.811Z,0
2016-11-06T02:54:14.484Z,0
2016-11-06T02:54:55.126Z,0
2016-11-06T02:55:35.802Z,0
2016-11-06T02:56:16.504Z,0
2016-11-06T02:56:57.216Z,0
2016-11-06T02:57:37.857Z,0
2016-11-06T02:58:18.552Z,0
2016-11-06T02:58:59.264Z,0
2016-11-06T02:59:39.936Z,0
2016-11-06T03:00:20.601Z,0
2016-11-06T03:01:01.258Z,0
2016-11-06T03:01:41.929Z,0
2016-11-06T03:02:22.646Z,0
2016-11-06T03:03:03.349Z,0
2016-11-06T03:03:44.040Z,0
2016-11-06T03:04:24.750Z,0
2016-11-06T03:05:05.456Z,0
2016-11-06T03:05:46.152Z,0
2016-11-06T03:06:26.766Z,0
2016-11-06T03:07:07.429Z,0
2016-11-06T03:07:48.119Z,0
2016-11-06T03:08:28.807Z,0
2016-11-06T03:09:09.424Z,0
2016-11-06T03:09:50.117Z,0
2016-11-06T03:10:30.758Z,0
2016-11-06T03:11:11.414Z,0
2016-11-06T03:11:52.099Z,0
2016-11-06T03:12:32.826Z,0
2016-11-06T03:13:13.463Z,0
2016-11-06T03:13:54.166Z,0
2016-11-06T03:14:34.870Z,0
2016-11-06T03:15:15.523Z,0
2016-11-06T03:15:56.222Z,0
2016-11-06T03:16:36.856Z,0
2016-11-06T03:17:17.570Z,0
2016-11-06T03:17:58.239Z,0
2016-11-06T03:18:38.907Z,0
2016-11-06T03:19:19.552Z,0
2016-11-06T03:20:00.295Z,0
2016-11-06T03:20:41.016Z,0
2016-11-06T03:21:21.708Z,0
2016-11-06T03:22:02.416Z,0
2016-11-06T03:22:43.110Z,0
2016-11-06T03:23:23.774Z,0
2016-11-06T03:24:04.473Z,0
2016-11-06T03:24:45.163Z,0
2016-11-06T03:25:25.856Z,0
2016-11-06T03:26:06.568Z,0
2016-11-06T03:26:47.292Z,0
2016-11-06T03:27:27.985Z,0
2016-11-06T03:28:08.739Z,0
2016-11-06T03:28:49.453Z,0
2016-11-06T03:29:30.146Z,0
2016-11-06T03:30:10.847Z,0
2016-11-06T03:30:51.495Z,0
2016-11-06T03:31:32.182Z,0
2016-11-06T03:32:12.857Z,0
2016-11-06T03:32:53.510Z,0
2016-11-06T03:33:34.252Z,0
2016-11-06T03:34:14.934Z,0
2016-11-06T03:34:55.577Z,0
2016-11-06T03:35:36.258Z,0
2016-11-06T03:36:16.921Z,0
2016-11-06T03:36:57.574Z,0
2016-11-06T03:37:38.300Z,0
2016-11-06T03:38:18.920Z,0
2016-11-06T03:38:59.633Z,0
2016-11-06T03:39:40.280Z,0
2016-11-06T03:40:20.984Z,0
2016-11-06T03:41:01.671Z,0
2016-11-06T03:41:42.334Z,0
2016-11-06T03:42:23.011Z,0
2016-11-06T03:43:03.697Z,0
2016-11-06T03:43:44.380Z,0
2016-11-06T03:44:25.092Z,0
2016-11-06T03:45:05.754Z,0
2016-11-06T03:45:46.455Z,0
2016-11-06T03:46:27.119Z,0
2016-11-06T03:47:07.755Z,0
2016-11-06T03:47:48.466Z,0
2016-11-06T03:48:29.170Z,0
2016-11-06T03:49:09.805Z,0
2016-11-06T03:49:50.459Z,0
2016-11-06T03:50:31.121Z,0
2016-11-06T03:51:11.835Z,0
2016-11-06T03:51:52.581Z,0
2016-11-06T03:52:33.296Z,0
2016-11-06T03:53:13.974Z,0
2016-11-06T03:53:54.617Z,0
2016-11-06T03:54:35.341Z,0
2016-11-06T03:55:16.026Z,0
2016-11-06T03:55:56.693Z,0
2016-11-06T03:56:37.370Z,0
2016-11-06T03:57:18.060Z,0
2016-11-06T03:57:58.754Z,0
2016-11-06T03:58:39.456Z,0
2016-11-06T03:59:20.175Z,0
2016-11-06T04:00:00.868Z,0
2016-11-06T04:00:41.519Z,0
2016-11-06T04:01:22.177Z,0
2016-11-06T04:02:02.876Z,0
2016-11-06T04:02:43.540Z,0
2016-11-06T04:03:24.254Z,0
2016-11-06T04:04:04.941Z,0
2016-11-06T04:04:45.600Z,0
2016-11-06T04:05:26.309Z,0
2016-11-06T04:06:06.999Z,0
2016-11-06T04:06:47.709Z,0
2016-11-06T04:07:28.423Z,0
2016-11-06T04:08:09.086Z,0
2016-11-06T04:08:49.798Z,0
2016-11-06T04:09:30.473Z,0
2016-11-06T04:10:11.160Z,0
2016-11-06T04:10:51.836Z,0
2016-11-06T04:11:32.477Z,0
2016-11-06T04:12:13.151Z,0
2016-11-06T04:12:53.829Z,0
2016-11-06T04:13:34.528Z,0
2016-11-06T04:14:15.193Z,0
2016-11-06T04:14:55.872Z,0
2016-11-06T04:15:36.500Z,0
2016-11-06T04:16:17.206Z,0
2016-11-06T04:16:57.951Z,0
2016-11-06T04:17:38.621Z,0
2016-11-06T04:18:19.315Z,0
2016-11-06T04:18:59.984Z,0
2016-11-06T04:19:40.648Z,0
2016-11-06T04:20:21.337Z,0
2016-11-06T04:21:02.037Z,0
2016-11-06T04:21:42.685Z,0
2016-11-06T04:22:23.358Z,0
2016-11-06T04:23:04.054Z,0
2016-11-06T04:23:44.687Z,0
2016-11-06T04:24:25.402Z,0
2016-11-06T04:25:06.070Z,0
2016-11-06T04:25:46.762Z,0
2016-11-06T04:26:27.421Z,0
2016-11-06T04:27:08.069Z,0
2016-11-06T04:27:48.718Z,0
2016-11-06T04:28:29.439Z,0
2016-11-06T04:29:10.136Z,0
2016-11-06T04:29:50.829Z,0
2016-11-06T04:30:31.556Z,0
2016-11-06T04:31:12.273Z,0
2016-11-06T04:31:52.954Z,0
2016-11-06T04:32:33.657Z,0
2016-11-06T04:33:14.330Z,0
2016-11-06T04:33:54.997Z,0
2016-11-06T04:34:35.696Z,0
2016-11-06T04:35:16.431Z,0
2016-11-06T04:35:57.137Z,0
2016-11-06T04:36:37.856Z,0
2016-11-06T04:37:18.513Z,0
2016-11-06T04:37:59.178Z,0
2016-11-06T04:38:39.891Z,0
2016-11-06T04:39:20.554Z,0
2016-11-06T04:40:01.255Z,0
2016-11-06T04:40:41.942Z,0
2016-11-06T04:41:22.653Z,0
2016-11-06T04:42:03.350Z,0
2016-11-06T04:42:44.081Z,0
2016-11-06T04:43:24.743Z,0
2016-11-06T04:44:05.413Z,0
2016-11-06T04:44:46.063Z,0
2016-11-06T04:45:26.789Z,0
2016-11-06T04:46:07.492Z,0
2016-11-06T04:46:48.176Z,0
2016-11-06T04:47:28.883Z,0
2016-11-06T04:48:09.534Z,0
2016-11-06T04:48:50.200Z,0
2016-11-06T04:49:30.838Z,0
2016-11-06T04:50:11.510Z,0
2016-11-06T04:50:52.193Z,0
2016-11-06T04:51:32.881Z,0
2016-11-06T04:52:13.607Z,0
2016-11-06T04:52:54.296Z,0
2016-11-06T04:53:34.961Z,0
2016-11-06T04:54:15.636Z,0
2016-11-06T04:54:56.325Z,0
2016-11-06T04:55:36.997Z,0
2016-11-06T04:56:18.384Z,0
2016-11-06T04:56:59.123Z,0
2016-11-06T04:57:39.806Z,0
2016-11-06T04:58:20.506Z,0
2016-11-06T04:59:01.177Z,0
2016-11-06T04:59:41.855Z,0
2016-11-06T05:00:22.547Z,0
2016-11-06T05:01:03.244Z,0
2016-11-06T05:01:43.888Z,0
2016-11-06T05:02:24.547Z,0
2016-11-06T05:03:05.246Z,0
2016-11-06T05:03:45.902Z,0
2016-11-06T05:04:26.571Z,0
2016-11-06T05:05:07.243Z,0
2016-11-06T05:05:47.943Z,0
2016-11-06T05:06:28.698Z,0
2016-11-06T05:07:09.352Z,0
2016-11-06T05:07:50.040Z,0
2016-11-06T05:08:30.715Z,0
2016-11-06T05:09:11.385Z,0
2016-11-06T05:09:52.055Z,0
2016-11-06T05:10:32.716Z,0
2016-11-06T05:11:13.389Z,0
2016-11-06T05:11:54.040Z,0
2016-11-06T05:12:34.745Z,0
2016-11-06T05:13:15.418Z,0
2016-11-06T05:13:56.070Z,0
2016-11-06T05:14:36.774Z,0
2016-11-06T05:15:17.396Z,0
2016-11-06T05:15:58.050Z,0
2016-11-06T05:16:38.756Z,0
2016-11-06T05:17:19.409Z,0
2016-11-06T05:18:00.101Z,0
2016-11-06T05:18:40.735Z,0
2016-11-06T05:19:21.378Z,0
2016-11-06T05:20:02.042Z,0
2016-11-06T05:20:42.774Z,0
2016-11-06T05:21:23.477Z,0
2016-11-06T05:22:04.129Z,0
2016-11-06T05:22:44.865Z,0
2016-11-06T05:23:25.546Z,0
2016-11-06T05:24:06.211Z,0
2016-11-06T05:24:46.950Z,0
2016-11-06T05:25:27.722Z,0
2016-11-06T05:26:08.402Z,0
2016-11-06T05:26:49.064Z,0
2016-11-06T05:27:29.787Z,0
2016-11-06T05:28:10.444Z,0
2016-11-06T05:28:51.145Z,0
2016-11-06T05:29:31.811Z,0
2016-11-06T05:30:12.502Z,0
2016-11-06T05:30:53.208Z,0
2016-11-06T05:31:33.884Z,0
2016-11-06T05:32:14.606Z,0
2016-11-06T05:32:55.280Z,0
2016-11-06T05:33:35.961Z,0
2016-11-06T05:34:16.669Z,0
2016-11-06T05:34:57.368Z,0
2016-11-06T05:35:38.028Z,0
2016-11-06T05:36:18.740Z,0
2016-11-06T05:36:59.418Z,0
2016-11-06T05:37:40.098Z,0
2016-11-06T05:38:20.787Z,0
2016-11-06T05:39:01.450Z,0
2016-11-06T05:39:42.080Z,0
2016-11-06T05:40:22.785Z,0
2016-11-06T05:41:03.480Z,0
2016-11-06T05:41:44.131Z,0
2016-11-06T05:42:24.835Z,0
2016-11-06T05:43:05.543Z,0
2016-11-06T05:43:46.210Z,0
2016-11-06T05:44:26.844Z,0
2016-11-06T05:45:07.554Z,0
2016-11-06T05:45:48.193Z,0
2016-11-06T05:46:28.840Z,0
2016-11-06T05:47:09.548Z,0
2016-11-06T05:47:50.249Z,0
2016-11-06T05:48:30.915Z,0
2016-11-06T05:49:11.607Z,0
2016-11-06T05:49:52.246Z,0
2016-11-06T05:50:32.908Z,0
2016-11-06T05:51:13.611Z,0
2016-11-06T05:51:54.285Z,0
2016-11-06T05:52:34.965Z,0
2016-11-06T05:53:15.616Z,0
2016-11-06T05:53:56.280Z,0
2016-11-06T05:54:36.986Z,0
2016-11-06T05:55:17.687Z,0
2016-11-06T05:55:58.349Z,0
2016-11-06T05:56:39.096Z,0
2016-11-06T05:57:19.739Z,0
2016-11-06T05:58:00.447Z,0
2016-11-06T05:58:41.138Z,0
2016-11-06T05:59:21.871Z,0
2016-11-06T06:00:02.541Z,0
2016-11-06T06:00:43.177Z,0
2016-11-06T06:01:23.852Z,0
2016-11-06T06:02:04.519Z,0
2016-11-06T06:02:45.205Z,0
2016-11-06T06:03:25.868Z,0
2016-11-06T06:04:06.565Z,0
2016-11-06T06:04:47.222Z,0
2016-11-06T06:05:27.911Z,0
2016-11-06T06:06:08.614Z,0
2016-11-06T06:06:49.328Z,0
2016-11-06T06:07:30.023Z,0
2016-11-06T06:08:10.659Z,0
2016-11-06T06:08:51.345Z,0
2016-11-06T06:09:32.026Z,0
2016-11-06T06:10:12.687Z,0
2016-11-06T06:10:53.416Z,0
2016-11-06T06:11:34.107Z,0
2016-11-06T06:12:14.800Z,0
2016-11-06T06:12:55.442Z,0
2016-11-06T06:13:36.144Z,0
2016-11-06T06:14:16.880Z,0
2016-11-06T06:14:57.555Z,0
2016-11-06T06:15:38.203Z,0
2016-11-06T06:16:18.924Z,0
2016-11-06T06:16:59.618Z,0
2016-11-06T06:17:40.323Z,0
2016-11-06T06:18:21.015Z,0
2016-11-06T06:19:01.709Z,0
2016-11-06T06:19:42.331Z,0
2016-11-06T06:20:22.987Z,0
2016-11-06T06:21:03.714Z,0
2016-11-06T06:21:44.439Z,0
2016-11-06T06:22:25.122Z,0
2016-11-06T06:23:05.794Z,0
2016-11-06T06:23:46.507Z,0
2016-11-06T06:24:27.205Z,0
2016-11-06T06:25:07.864Z,0
2016-11-06T06:25:48.537Z,0
2016-11-06T06:26:29.228Z,0
2016-11-06T06:27:09.841Z,0
2016-11-06T06:27:50.512Z,0
2016-11-06T06:28:31.168Z,0
2016-11-06T06:29:11.861Z,0
2016-11-06T06:29:52.540Z,0
2016-11-06T06:30:33.196Z,0
2016-11-06T06:31:13.873Z,0
2016-11-06T06:31:54.535Z,0
2016-11-06T06:32:35.206Z,0
2016-11-06T06:33:15.905Z,0
2016-11-06T06:33:56.618Z,0
2016-11-06T06:34:37.324Z,4
2016-11-06T06:35:18.020Z,4
2016-11-06T06:35:58.710Z,4
2016-11-06T06:36:39.369Z,0
2016-11-06T06:37:20.062Z,0
2016-11-06T06:38:00.727Z,0
2016-11-06T06:38:41.416Z,4
2016-11-06T06:39:22.136Z,4
2016-11-06T06:40:02.837Z,4
2016-11-06T06:40:43.505Z,0
2016-11-06T06:41:24.195Z,4
2016-11-06T06:42:04.891Z,4
2016-11-06T06:42:45.600Z,4
2016-11-06T06:43:26.304Z,4
2016-11-06T06:44:07.027Z,4
2016-11-06T06:44:47.673Z,4
2016-11-06T06:45:28.307Z,4
2016-11-06T06:46:09.010Z,8
2016-11-06T06:46:49.695Z,4
2016-11-06T06:47:30.404Z,4
2016-11-06T06:48:11.087Z,8
2016-11-06T06:48:51.730Z,4
2016-11-06T06:49:32.416Z,8
2016-11-06T06:50:13.082Z,8
2016-11-06T06:50:53.747Z,12
2016-11-06T06:51:34.479Z,12
2016-11-06T06:52:15.179Z,8
2016-11-06T06:52:55.815Z,12
2016-11-06T06:53:36.523Z,12
2016-11-06T06:54:17.261Z,8
2016-11-06T06:54:57.947Z,8
2016-11-06T06:55:38.591Z,8
2016-11-06T06:56:19.207Z,16
2016-11-06T06:56:59.871Z,20
2016-11-06T06:57:40.579Z,20
2016-11-06T06:58:21.287Z,20
2016-11-06T06:59:01.991Z,16
2016-11-06T06:59:42.697Z,24
2016-11-06T07:00:23.400Z,20
2016-11-06T07:01:04.106Z,20
2016-11-06T07:01:44.784Z,24
2016-11-06T07:02:25.475Z,24
2016-11-06T07:03:06.150Z,24
2016-11-06T07:03:46.853Z,24
2016-11-06T07:04:27.531Z,24
2016-11-06T07:05:08.202Z,28
2016-11-06T07:05:48.891Z,28
2016-11-06T07:06:29.556Z,24
2016-11-06T07:07:10.202Z,24
2016-11-06T07:07:50.855Z,28
2016-11-06T07:08:31.567Z,28
2016-11-06T07:09:12.208Z,28
2016-11-06T07:09:52.885Z,28
2016-11-06T07:10:33.550Z,28
2016-11-06T07:11:14.204Z,28
2016-11-06T07:11:54.920Z,32
2016-11-06T07:12:35.605Z,28
2016-11-06T07:13:16.284Z,20
2016-11-06T07:13:57.009Z,16
2016-11-06T07:14:37.720Z,16
2016-11-06T07:15:18.382Z,16
2016-11-06T07:15:59.075Z,20
2016-11-06T07:16:39.738Z,28
2016-11-06T07:17:20.446Z,32
2016-11-06T07:18:01.187Z,32
2016-11-06T07:18:41.834Z,36
2016-11-06T07:19:22.503Z,36
2016-11-06T07:20:03.189Z,36
2016-11-06T07:20:43.905Z,32
2016-11-06T07:21:24.616Z,32
2016-11-06T07:22:05.287Z,28
2016-11-06T07:22:45.925Z,36
2016-11-06T07:23:26.602Z,36
2016-11-06T07:24:07.315Z,36
2016-11-06T07:24:47.999Z,40
2016-11-06T07:25:28.714Z,40
2016-11-06T07:26:09.394Z,40
2016-11-06T07:26:50.077Z,40
2016-11-06T07:27:30.791Z,36
2016-11-06T07:28:11.455Z,36
2016-11-06T07:28:52.135Z,40
2016-11-06T07:29:32.820Z,40
2016-11-06T07:30:13.464Z,40
2016-11-06T07:30:54.192Z,44
2016-11-06T07:31:34.826Z,40
2016-11-06T07:32:15.539Z,40
2016-11-06T07:32:56.257Z,40
2016-11-06T07:33:36.921Z,44
2016-11-06T07:34:17.573Z,40
2016-11-06T07:34:58.259Z,40
2016-11-06T07:35:38.985Z,44
2016-11-06T07:36:19.638Z,44
2016-11-06T07:37:00.327Z,44
2016-11-06T07:37:41.027Z,44
2016-11-06T07:38:21.725Z,44
2016-11-06T07:39:02.391Z,44
2016-11-06T07:39:43.076Z,44
2016-11-06T07:40:23.761Z,48
2016-11-06T07:41:04.442Z,48
2016-11-06T07:41:45.136Z,44
2016-11-06T07:42:25.824Z,48
2016-11-06T07:43:06.522Z,48
2016-11-06T07:43:47.231Z,44
2016-11-06T07:44:27.889Z,48
2016-11-06T07:45:08.599Z,48
2016-11-06T07:45:49.234Z,48
2016-11-06T07:46:29.941Z,48
2016-11-06T07:47:10.620Z,52
2016-11-06T07:47:51.311Z,52
2016-11-06T07:48:31.964Z,48
2016-11-06T07:49:12.646Z,48
2016-11-06T07:49:53.298Z,52
2016-11-06T07:50:33.968Z,52
2016-11-06T07:51:14.680Z,48
2016-11-06T07:51:55.353Z,52
2016-11-06T07:52:36.037Z,52
2016-11-06T07:53:16.729Z,52
2016-11-06T07:53:57.428Z,52
2016-11-06T07:54:38.122Z,52
2016-11-06T07:55:18.794Z,56
2016-11-06T07:55:59.458Z,52
2016-11-06T07:56:40.138Z,56
2016-11-06T07:57:20.785Z,52
2016-11-06T07:58:01.481Z,56
2016-11-06T07:58:42.154Z,56
2016-11-06T07:59:22.848Z,56
2016-11-06T08:00:03.558Z,56
2016-11-06T08:00:44.237Z,60
2016-11-06T08:01:24.936Z,56
2016-11-06T08:02:05.619Z,60
2016-11-06T08:02:46.304Z,56
2016-11-06T08:03:26.982Z,60
2016-11-06T08:04:07.650Z,60
2016-11-06T08:04:48.310Z,60
2016-11-06T08:05:28.976Z,64
2016-11-06T08:06:09.678Z,60
2016-11-06T08:06:50.346Z,60
2016-11-06T08:07:31.031Z,60
2016-11-06T08:08:11.718Z,60
2016-11-06T08:08:52.403Z,60
2016-11-06T08:09:33.088Z,60
2016-11-06T08:10:13.808Z,60
2016-11-06T08:10:54.519Z,64
2016-11-06T08:11:35.194Z,60
2016-11-06T08:12:15.900Z,60
2016-11-06T08:12:56.587Z,64
2016-11-06T08:13:37.268Z,60
2016-11-06T08:14:17.963Z,64
2016-11-06T08:14:58.622Z,60
2016-11-06T08:15:39.333Z,60
2016-11-06T08:16:20.032Z,40
2016-11-06T08:17:00.718Z,60
2016-11-06T08:17:41.378Z,64
2016-11-06T08:18:22.060Z,64
2016-11-06T08:19:02.726Z,64
2016-11-06T08:19:43.395Z,68
2016-11-06T08:20:24.073Z,60
2016-11-06T08:21:04.775Z,60
2016-11-06T08:21:45.438Z,48
2016-11-06T08:22:26.111Z,64
2016-11-06T08:23:06.777Z,60
2016-11-06T08:23:47.466Z,52
2016-11-06T08:24:28.165Z,44
2016-11-06T08:25:08.817Z,60
2016-11-06T08:25:49.519Z,68
2016-11-06T08:26:30.179Z,68
2016-11-06T08:27:10.887Z,64
2016-11-06T08:27:51.604Z,68
2016-11-06T08:28:32.290Z,64
2016-11-06T08:29:12.976Z,64
2016-11-06T08:29:53.685Z,64
2016-11-06T08:30:34.367Z,64
2016-11-06T08:31:15.027Z,64
2016-11-06T08:31:55.709Z,68
2016-11-06T08:32:36.411Z,64
2016-11-06T08:33:17.077Z,64
2016-11-06T08:33:57.771Z,64
2016-11-06T08:34:38.478Z,60
2016-11-06T08:35:19.124Z,64
2016-11-06T08:35:59.805Z,64
2016-11-06T08:36:40.497Z,64
2016-11-06T08:37:21.217Z,60
2016-11-06T08:38:01.953Z,60
2016-11-06T08:38:42.694Z,64
2016-11-06T08:39:23.327Z,64
2016-11-06T08:40:03.994Z,64
2016-11-06T08:40:44.710Z,64
2016-11-06T08:41:25.402Z,64
2016-11-06T08:42:06.079Z,64
2016-11-06T08:42:46.723Z,64
2016-11-06T08:43:27.459Z,60
2016-11-06T08:44:08.153Z,60
2016-11-06T08:44:48.851Z,60
2016-11-06T08:45:29.512Z,60
2016-11-06T08:46:10.217Z,60
2016-11-06T08:46:50.906Z,60
2016-11-06T08:47:31.600Z,60
2016-11-06T08:48:12.252Z,60
2016-11-06T08:48:52.937Z,60
2016-11-06T08:49:33.582Z,60
2016-11-06T08:50:14.286Z,60
2016-11-06T08:50:54.972Z,64
2016-11-06T08:51:35.679Z,64
2016-11-06T08:52:16.359Z,64
2016-11-06T08:52:57.034Z,64
2016-11-06T08:53:37.724Z,64
2016-11-06T08:54:18.390Z,60
2016-11-06T08:54:59.112Z,64
2016-11-06T08:55:39.782Z,64
2016-11-06T08:56:20.445Z,64
2016-11-06T08:57:01.131Z,64
2016-11-06T08:57:41.796Z,60
2016-11-06T08:58:22.496Z,64
2016-11-06T08:59:03.174Z,64
2016-11-06T08:59:43.866Z,64
2016-11-06T09:00:24.538Z,64
2016-11-06T09:01:05.204Z,64
2016-11-06T09:01:45.914Z,64
2016-11-06T09:02:26.638Z,64
2016-11-06T09:03:07.334Z,64
2016-11-06T09:03:48.014Z,64
2016-11-06T09:04:28.693Z,64
2016-11-06T09:05:09.417Z,64
2016-11-06T09:05:50.047Z,64
2016-11-06T09:06:30.753Z,64
2016-11-06T09:07:11.402Z,64
2016-11-06T09:07:52.093Z,60
2016-11-06T09:08:32.849Z,60
2016-11-06T09:09:13.522Z,60
2016-11-06T09:09:54.207Z,60
2016-11-06T09:10:34.873Z,60
2016-11-06T09:11:15.610Z,60
2016-11-06T09:11:56.308Z,60
2016-11-06T09:12:36.987Z,60
2016-11-06T09:13:17.714Z,60
2016-11-06T09:13:58.428Z,60
2016-11-06T09:14:39.140Z,60
2016-11-06T09:15:19.827Z,60
2016-11-06T09:16:00.537Z,64
2016-11-06T09:16:41.201Z,64
2016-11-06T09:17:21.918Z,64
2016-11-06T09:18:02.569Z,64
2016-11-06T09:18:43.207Z,64
2016-11-06T09:19:23.963Z,64
2016-11-06T09:20:04.647Z,64
2016-11-06T09:20:45.985Z,64
2016-11-06T09:21:26.067Z,64
2016-11-06T09:22:06.789Z,64
2016-11-06T09:22:47.532Z,64
2016-11-06T09:23:28.221Z,64
2016-11-06T09:24:08.873Z,64
2016-11-06T09:24:49.562Z,64
2016-11-06T09:25:30.277Z,64
2016-11-06T09:26:10.975Z,64
2016-11-06T09:26:51.678Z,64
2016-11-06T09:27:32.322Z,64
2016-11-06T09:28:12.991Z,64
2016-11-06T09:28:53.735Z,64
2016-11-06T09:29:34.422Z,64
2016-11-06T09:30:15.115Z,64
2016-11-06T09:30:55.813Z,64
2016-11-06T09:31:36.468Z,64
2016-11-06T09:32:17.188Z,64
2016-11-06T09:32:57.907Z,64
2016-11-06T09:33:38.581Z,64
2016-11-06T09:34:19.269Z,64
2016-11-06T09:34:59.979Z,64
2016-11-06T09:35:40.691Z,64
2016-11-06T09:36:21.377Z,64
2016-11-06T09:37:01.985Z,64
2016-11-06T09:37:42.715Z,64
2016-11-06T09:38:23.358Z,64
2016-11-06T09:39:04.069Z,64
2016-11-06T09:39:44.785Z,64
2016-11-06T09:40:25.476Z,64
2016-11-06T09:41:06.175Z,64
2016-11-06T09:41:46.819Z,64
2016-11-06T09:42:27.518Z,64
2016-11-06T09:43:08.143Z,64
2016-11-06T09:43:48.798Z,64
2016-11-06T09:44:29.473Z,64
2016-11-06T09:45:10.184Z,64
2016-11-06T09:45:50.864Z,64
2016-11-06T09:46:31.532Z,64
2016-11-06T09:47:12.197Z,64
2016-11-06T09:47:52.913Z,64
2016-11-06T09:48:33.638Z,64
2016-11-06T09:49:14.291Z,64
2016-11-06T09:49:55.005Z,64
2016-11-06T09:50:35.668Z,64
2016-11-06T09:51:16.363Z,64
2016-11-06T09:51:57.056Z,64
2016-11-06T09:52:37.738Z,64
2016-11-06T09:53:18.391Z,64
2016-11-06T09:53:59.038Z,64
2016-11-06T09:54:39.762Z,64
2016-11-06T09:55:20.489Z,64